Time;durP1;ratioP1;P1;durP2;ratioP2;P2;SDS_P1;SDS_P2;PMS_P1;PMS_P2;Temp;Humidity;BMP_temperature;BMP_pressure;BME280_temperature;BME280_humidity;BME280_pressure;Samples;Min_cycle;Max_cycle;Signal;HPM_P1;HPM_P2
2024/02/09 00:03:35;;;;;;;12.38;4.95;;;10.50;99.90;;;;;;10483717;28;20248;-65
2024/02/09 00:08:40;;;;;;;11.18;5.28;;;10.60;99.90;;;;;;10487093;28;20265;-66
2024/02/09 00:13:45;;;;;;;10.57;4.90;;;10.60;99.90;;;;;;10490984;28;20215;-63
2024/02/09 00:18:49;;;;;;;16.20;6.85;;;10.60;99.90;;;;;;10490230;28;20288;-65
2024/02/09 00:23:53;;;;;;;12.90;6.35;;;10.60;99.90;;;;;;10479084;28;20600;-65
2024/02/09 00:29:01;;;;;;;9.45;5.28;;;10.60;99.90;;;;;;10487220;28;20284;-64
2024/02/09 00:34:04;;;;;;;14.10;7.13;;;10.60;99.90;;;;;;10470895;28;20756;-63
2024/02/09 00:39:08;;;;;;;18.52;7.47;;;10.60;99.90;;;;;;10481404;28;20215;-63
2024/02/09 00:44:13;;;;;;;14.60;7.40;;;10.60;99.90;;;;;;10491915;28;20186;-67
2024/02/09 00:49:16;;;;;;;13.52;5.40;;;10.50;99.90;;;;;;10491399;28;20249;-66
2024/02/09 00:54:22;;;;;;;12.52;4.65;;;10.60;99.90;;;;;;10484312;28;20631;-65
2024/02/09 00:59:30;;;;;;;15.43;5.60;;;10.60;99.90;;;;;;10481904;28;20754;-63
2024/02/09 01:04:34;;;;;;;11.23;5.55;;;10.60;99.90;;;;;;10466193;28;20199;-66
2024/02/09 01:09:38;;;;;;;10.45;5.20;;;10.60;99.90;;;;;;10486125;28;20591;-66
2024/02/09 02:45:57;;;;;;;12.80;5.90;;;10.50;99.90;;;;;;10478878;28;20194;-64
2024/02/09 03:07:07;;;;;;;10.55;4.68;;;10.60;99.90;;;;;;10474313;28;20260;-64
2024/02/09 03:12:30;;;;;;;10.20;4.72;;;10.60;99.90;;;;;;10487075;28;20206;-65
2024/02/09 03:17:34;;;;;;;12.03;5.10;;;10.60;99.90;;;;;;10480114;28;20836;-68
2024/02/09 03:22:39;;;;;;;9.93;4.07;;;10.60;99.90;;;;;;10484766;28;20203;-66
2024/02/09 03:27:42;;;;;;;9.10;4.15;;;10.60;99.90;;;;;;10480871;28;20308;-64
2024/02/09 03:32:46;;;;;;;11.70;5.10;;;10.60;99.90;;;;;;10478661;28;20235;-66
2024/02/09 03:37:51;;;;;;;8.33;4.63;;;10.60;99.90;;;;;;10475248;28;20251;-66
2024/02/09 03:42:55;;;;;;;10.63;4.87;;;10.60;99.90;;;;;;10477955;28;20666;-66
2024/02/09 03:48:00;;;;;;;8.27;4.38;;;10.60;99.90;;;;;;10477500;28;20315;-65
2024/02/09 03:53:06;;;;;;;13.73;4.50;;;10.60;99.90;;;;;;10477644;28;20633;-64
2024/02/09 03:58:13;;;;;;;11.82;4.45;;;10.60;99.90;;;;;;10477829;28;20301;-64
2024/02/09 04:03:17;;;;;;;9.43;4.25;;;10.60;99.90;;;;;;10470262;28;20677;-65
2024/02/09 04:08:22;;;;;;;12.20;4.13;;;10.60;99.90;;;;;;10470401;28;20219;-65
2024/02/09 04:13:26;;;;;;;8.07;4.17;;;10.70;99.90;;;;;;10477102;28;20226;-67
2024/02/09 04:18:30;;;;;;;7.20;3.78;;;10.70;99.90;;;;;;10476273;28;20729;-65
2024/02/09 04:23:36;;;;;;;10.85;4.65;;;10.60;99.90;;;;;;10472035;28;20233;-66
2024/02/09 04:28:40;;;;;;;11.53;4.20;;;10.60;99.90;;;;;;10478942;28;20219;-63
2024/02/09 04:33:43;;;;;;;13.13;5.40;;;10.60;99.90;;;;;;10470119;28;20214;-66
2024/02/09 04:38:48;;;;;;;12.85;5.22;;;10.70;99.90;;;;;;10478553;28;20285;-65
2024/02/09 04:43:52;;;;;;;12.23;5.40;;;10.70;99.90;;;;;;10474735;28;20226;-67
2024/02/09 04:48:56;;;;;;;8.67;4.20;;;10.70;99.90;;;;;;10489699;28;20253;-66
2024/02/09 04:54:01;;;;;;;8.27;3.90;;;10.70;99.90;;;;;;10482144;28;20230;-67
2024/02/09 04:59:07;;;;;;;8.63;4.07;;;10.70;99.90;;;;;;10482018;28;20254;-66
2024/02/09 05:04:12;;;;;;;6.43;2.90;;;10.60;99.90;;;;;;10490818;28;20236;-65
2024/02/09 05:09:29;;;;;;;8.17;3.37;;;10.70;99.90;;;;;;10487454;28;20814;-68
2024/02/09 05:14:33;;;;;;;6.63;3.10;;;10.60;99.90;;;;;;10483925;28;20207;-65
2024/02/09 05:19:37;;;;;;;6.07;3.17;;;10.60;99.90;;;;;;10485880;28;20241;-65
2024/02/09 05:24:42;;;;;;;4.85;2.55;;;10.60;99.90;;;;;;10483930;28;20202;-64
2024/02/09 05:29:45;;;;;;;8.63;3.97;;;10.60;99.90;;;;;;10483595;28;20226;-64
2024/02/09 05:34:49;;;;;;;4.53;2.60;;;10.70;99.90;;;;;;10477150;28;20232;-65
2024/02/09 05:39:56;;;;;;;7.23;2.73;;;10.60;99.90;;;;;;10482138;28;20238;-65
2024/02/09 05:45:05;;;;;;;4.17;2.00;;;10.60;99.90;;;;;;10479511;28;20199;-66
2024/02/09 05:50:10;;;;;;;6.80;2.50;;;10.60;99.90;;;;;;10483893;28;20693;-66
2024/02/09 05:55:19;;;;;;;5.97;3.25;;;10.60;99.90;;;;;;10482030;28;20307;-65
2024/02/09 06:00:24;;;;;;;6.40;2.90;;;10.70;99.90;;;;;;10470942;28;20268;-64
2024/02/09 06:05:28;;;;;;;3.88;2.30;;;10.70;99.90;;;;;;10481394;28;20659;-68
2024/02/09 06:10:34;;;;;;;4.32;2.17;;;10.70;99.90;;;;;;10491073;28;20257;-65
2024/02/09 06:15:37;;;;;;;7.83;2.37;;;10.70;99.90;;;;;;10478975;28;20291;-67
2024/02/09 06:20:41;;;;;;;3.92;3.20;;;10.70;99.90;;;;;;10484238;28;20746;-65
2024/02/09 06:25:47;;;;;;;4.70;2.30;;;10.70;99.90;;;;;;10485658;28;20224;-65
2024/02/09 06:30:50;;;;;;;3.50;1.80;;;10.70;99.90;;;;;;10480448;28;20236;-65
2024/02/09 06:35:54;;;;;;;5.88;3.08;;;10.70;99.90;;;;;;10455408;28;20234;-67
2024/02/09 06:40:59;;;;;;;3.30;1.65;;;10.70;99.90;;;;;;10490121;28;20272;-65
2024/02/09 06:46:03;;;;;;;5.68;2.28;;;10.80;99.90;;;;;;10451408;28;20199;-66
2024/02/09 06:51:07;;;;;;;3.15;1.77;;;10.80;99.90;;;;;;10469097;28;20249;-66
2024/02/09 06:56:12;;;;;;;3.57;1.80;;;10.80;99.90;;;;;;10482500;28;20239;-66
2024/02/09 07:01:18;;;;;;;4.35;2.50;;;10.80;99.90;;;;;;10489625;28;20195;-65
2024/02/09 07:06:22;;;;;;;5.45;2.90;;;10.80;99.90;;;;;;10493272;28;20727;-63
2024/02/09 07:11:27;;;;;;;5.47;3.33;;;10.80;99.90;;;;;;10486562;28;20221;-65
2024/02/09 07:16:33;;;;;;;6.13;3.15;;;10.90;99.90;;;;;;10476091;28;20285;-66
2024/02/09 07:21:37;;;;;;;7.55;3.83;;;10.90;99.90;;;;;;10487036;28;20207;-64
2024/02/09 07:26:42;;;;;;;6.32;3.42;;;10.90;99.90;;;;;;10484654;28;20752;-62
2024/02/09 07:31:45;;;;;;;3.63;2.33;;;10.90;99.90;;;;;;10496105;28;20268;-65
2024/02/09 07:36:49;;;;;;;4.47;2.40;;;10.90;99.90;;;;;;10490346;28;20284;-63
2024/02/09 07:41:54;;;;;;;4.13;1.85;;;11.00;99.90;;;;;;10486317;28;20202;-63
2024/02/09 07:46:57;;;;;;;2.53;1.98;;;11.00;99.90;;;;;;10461060;28;20220;-64
2024/02/09 07:52:02;;;;;;;5.22;2.55;;;11.00;99.90;;;;;;10494283;28;20195;-65
2024/02/09 07:57:08;;;;;;;5.25;2.50;;;11.00;99.90;;;;;;10488167;28;20249;-66
2024/02/09 08:02:11;;;;;;;4.00;2.03;;;11.10;99.90;;;;;;10470095;28;20256;-63
2024/02/09 08:07:16;;;;;;;5.27;2.77;;;11.10;99.90;;;;;;10462697;28;20220;-66
2024/02/09 08:12:21;;;;;;;3.45;2.05;;;11.10;99.90;;;;;;10489533;28;20220;-68
2024/02/09 08:17:25;;;;;;;7.65;2.05;;;11.10;99.90;;;;;;10476088;28;20635;-64
2024/02/09 08:22:31;;;;;;;5.60;2.50;;;11.10;99.90;;;;;;10488460;28;20727;-66
2024/02/09 08:27:36;;;;;;;4.22;2.33;;;11.20;99.90;;;;;;10493798;28;20952;-65
2024/02/09 08:32:42;;;;;;;5.85;2.85;;;11.20;99.90;;;;;;10486400;28;20201;-65
2024/02/09 08:37:46;;;;;;;7.07;4.55;;;11.20;99.90;;;;;;10479012;28;20227;-66
2024/02/09 08:42:51;;;;;;;7.63;3.10;;;11.20;99.90;;;;;;10476260;28;20203;-65
2024/02/09 08:47:54;;;;;;;8.25;3.65;;;11.20;99.90;;;;;;10473542;28;20269;-66
2024/02/09 08:53:06;;;;;;;9.02;3.60;;;11.20;99.90;;;;;;10478360;28;20207;-65
2024/02/09 08:58:11;;;;;;;11.80;4.85;;;11.20;99.90;;;;;;10484491;28;20227;-65
2024/02/09 09:03:16;;;;;;;3.75;2.92;;;11.20;99.90;;;;;;10474999;28;20199;-64
2024/02/09 09:08:19;;;;;;;5.10;3.05;;;11.20;99.90;;;;;;10487310;28;20694;-62
2024/02/09 09:13:24;;;;;;;7.00;3.20;;;11.20;99.90;;;;;;10488323;28;20180;-64
2024/02/09 09:18:29;;;;;;;11.57;4.50;;;11.30;99.90;;;;;;10487334;28;20226;-64
2024/02/09 09:23:33;;;;;;;6.68;3.33;;;11.30;99.90;;;;;;10490816;28;20199;-62
2024/02/09 09:28:37;;;;;;;6.68;3.22;;;11.30;99.90;;;;;;10490694;28;20276;-66
2024/02/09 09:33:41;;;;;;;5.43;3.50;;;11.40;99.90;;;;;;10455018;28;20683;-63
2024/02/09 09:38:45;;;;;;;6.80;2.92;;;11.40;99.90;;;;;;10456895;28;20219;-63
2024/02/09 09:43:51;;;;;;;9.50;4.35;;;11.50;99.90;;;;;;10456912;28;20196;-63
2024/02/09 09:48:57;;;;;;;7.45;3.38;;;11.60;99.90;;;;;;10467620;28;20211;-65
2024/02/09 09:54:01;;;;;;;8.68;3.58;;;11.60;99.90;;;;;;10496714;28;20198;-65
2024/02/09 09:59:08;;;;;;;8.40;2.97;;;11.70;99.90;;;;;;10493078;28;20281;-66
2024/02/09 10:04:12;;;;;;;4.72;2.30;;;11.80;99.90;;;;;;10483887;28;20681;-62
2024/02/09 10:09:16;;;;;;;3.85;2.05;;;11.80;99.90;;;;;;10486980;28;20223;-63
2024/02/09 10:14:23;;;;;;;4.65;2.55;;;11.80;99.90;;;;;;10488585;28;20199;-64
2024/02/09 10:19:27;;;;;;;2.83;1.80;;;11.90;99.90;;;;;;10495360;28;20624;-66
2024/02/09 10:24:31;;;;;;;6.63;2.08;;;12.00;99.90;;;;;;10498195;28;20207;-65
2024/02/09 10:29:36;;;;;;;4.13;2.17;;;12.10;99.90;;;;;;10491385;28;20980;-66
2024/02/09 10:34:40;;;;;;;3.40;2.33;;;12.30;99.90;;;;;;10497073;28;20207;-68
2024/02/09 10:39:44;;;;;;;5.70;2.08;;;12.30;99.90;;;;;;10485558;28;20222;-66
2024/02/09 10:44:52;;;;;;;5.35;2.03;;;12.50;99.90;;;;;;10483040;28;20229;-64
2024/02/09 10:50:06;;;;;;;3.85;2.08;;;12.60;99.90;;;;;;10489319;28;20766;-67
2024/02/09 10:55:14;;;;;;;3.67;1.95;;;12.60;99.90;;;;;;10472806;28;20199;-64
2024/02/09 11:00:20;;;;;;;4.70;1.95;;;12.80;99.90;;;;;;10486318;28;20226;-66
2024/02/09 11:05:24;;;;;;;4.57;2.50;;;12.90;99.90;;;;;;10472510;28;20195;-67
2024/02/09 11:10:29;;;;;;;5.32;2.30;;;13.00;99.90;;;;;;10480887;28;20222;-67
2024/02/09 11:15:35;;;;;;;3.08;1.65;;;13.10;99.90;;;;;;10482738;28;20204;-66
2024/02/09 11:20:38;;;;;;;3.78;2.20;;;13.10;99.90;;;;;;10490579;28;20222;-67
2024/02/09 11:25:46;;;;;;;3.67;2.22;;;13.20;99.90;;;;;;10490470;28;20199;-66
2024/02/09 11:30:54;;;;;;;4.45;2.30;;;13.10;99.90;;;;;;10490935;22;20223;-62
2024/02/09 11:35:59;;;;;;;1.98;1.67;;;13.10;99.90;;;;;;10473040;28;20195;-63
2024/02/09 11:41:03;;;;;;;3.67;1.80;;;13.20;99.90;;;;;;10450948;28;20300;-64
2024/02/09 11:46:08;;;;;;;3.92;2.20;;;13.10;99.90;;;;;;10446674;28;20233;-64
2024/02/09 11:51:20;;;;;;;3.85;2.72;;;13.20;99.90;;;;;;10446900;28;20216;-64
2024/02/09 11:56:24;;;;;;;4.13;2.53;;;13.20;99.90;;;;;;10442123;28;20589;-64
2024/02/09 12:01:30;;;;;;;3.83;1.75;;;13.10;99.90;;;;;;10453641;28;20219;-59
2024/02/09 12:06:36;;;;;;;4.18;2.17;;;13.10;99.90;;;;;;10449630;28;20203;-60
2024/02/09 12:11:40;;;;;;;4.50;2.08;;;13.10;99.90;;;;;;10452462;28;20215;-62
2024/02/09 12:16:46;;;;;;;5.18;2.20;;;13.10;99.90;;;;;;10447925;28;20285;-60
2024/02/09 12:21:51;;;;;;;3.28;2.13;;;13.10;99.90;;;;;;10447876;28;20324;-60
2024/02/09 12:26:55;;;;;;;4.38;2.03;;;13.10;99.90;;;;;;10447374;28;20207;-63
2024/02/09 12:32:04;;;;;;;5.85;2.75;;;13.10;99.90;;;;;;10446380;28;20223;-62
2024/02/09 12:37:11;;;;;;;2.92;1.85;;;13.10;99.90;;;;;;10444549;28;20229;-63
2024/02/09 12:42:17;;;;;;;4.15;3.05;;;13.10;99.90;;;;;;10444468;28;20220;-63
2024/02/09 12:47:23;;;;;;;2.88;2.10;;;13.10;99.90;;;;;;10446456;28;20199;-62
2024/02/09 12:52:27;;;;;;;3.22;2.25;;;13.10;99.90;;;;;;10446863;28;20285;-63
2024/02/09 12:57:31;;;;;;;3.13;1.85;;;13.10;99.90;;;;;;10444881;28;20812;-63
2024/02/09 13:02:36;;;;;;;5.68;2.22;;;13.20;99.90;;;;;;10449261;28;20575;-64
2024/02/09 13:07:39;;;;;;;3.83;2.13;;;13.20;99.90;;;;;;10451578;28;20229;-64
2024/02/09 13:12:44;;;;;;;3.20;2.10;;;13.10;99.90;;;;;;10451947;28;20650;-63
2024/02/09 13:17:49;;;;;;;4.38;2.10;;;13.20;99.90;;;;;;10450072;28;20285;-62
2024/02/09 13:22:55;;;;;;;2.80;1.92;;;13.20;99.90;;;;;;10451853;28;20200;-63
2024/02/09 13:27:59;;;;;;;3.15;1.98;;;13.20;99.90;;;;;;10453178;28;20244;-64
2024/02/09 13:33:04;;;;;;;5.93;2.38;;;13.20;99.90;;;;;;10453318;28;20200;-62
2024/02/09 13:38:08;;;;;;;4.13;1.92;;;13.20;99.90;;;;;;10452708;28;20692;-61
2024/02/09 13:43:12;;;;;;;3.88;2.28;;;13.20;99.90;;;;;;10452947;28;20265;-63
2024/02/09 13:48:19;;;;;;;6.03;1.95;;;13.20;99.90;;;;;;10449650;28;20234;-63
2024/02/09 13:53:23;;;;;;;2.92;2.17;;;13.20;99.90;;;;;;10452164;28;20195;-65
2024/02/09 13:58:27;;;;;;;3.15;2.13;;;13.20;99.90;;;;;;10451362;28;20227;-64
2024/02/09 14:03:32;;;;;;;6.47;2.38;;;13.20;99.90;;;;;;10452012;28;20223;-64
2024/02/09 14:08:37;;;;;;;2.67;1.83;;;13.20;99.90;;;;;;10451578;28;20219;-64
2024/02/09 14:13:41;;;;;;;3.05;1.70;;;13.20;99.90;;;;;;10449217;28;20203;-65
2024/02/09 14:18:47;;;;;;;3.63;2.00;;;13.20;99.90;;;;;;10448368;28;20764;-65
2024/02/09 14:23:51;;;;;;;4.88;2.80;;;13.30;99.90;;;;;;10449687;28;20254;-65
2024/02/09 14:28:58;;;;;;;8.20;2.70;;;13.30;99.90;;;;;;10447945;28;20310;-64
2024/02/09 14:34:05;;;;;;;4.85;3.00;;;13.30;99.90;;;;;;10450876;28;20200;-65
2024/02/09 14:39:09;;;;;;;4.57;2.70;;;13.30;99.90;;;;;;10448186;28;20292;-66
2024/02/09 14:44:12;;;;;;;3.80;2.50;;;13.30;99.90;;;;;;10446648;28;20212;-63
2024/02/09 14:49:18;;;;;;;5.80;4.07;;;13.20;99.90;;;;;;10449041;28;20269;-63
2024/02/09 14:54:22;;;;;;;4.57;2.40;;;13.30;99.90;;;;;;10443386;28;20655;-63
2024/02/09 14:59:26;;;;;;;4.65;2.60;;;13.30;99.90;;;;;;10449077;28;20220;-63
2024/02/09 15:04:34;;;;;;;2.70;2.33;;;13.30;99.90;;;;;;10447393;28;20230;-62
2024/02/09 15:09:40;;;;;;;6.07;3.15;;;13.30;99.90;;;;;;10446746;28;20259;-62
2024/02/09 15:14:44;;;;;;;4.75;2.60;;;13.20;99.90;;;;;;10443691;28;20261;-62
2024/02/09 15:19:49;;;;;;;3.03;2.30;;;13.20;99.90;;;;;;10447900;28;20623;-62
2024/02/09 15:24:55;;;;;;;4.88;2.50;;;13.20;99.90;;;;;;10446637;28;20208;-62
2024/02/09 15:29:59;;;;;;;3.75;2.63;;;13.20;99.90;;;;;;10446288;28;20231;-62
2024/02/09 15:35:04;;;;;;;6.43;3.20;;;13.10;99.90;;;;;;10447319;28;20277;-62
2024/02/09 15:40:10;;;;;;;4.90;2.92;;;13.10;99.90;;;;;;10445372;28;20247;-62
2024/02/09 15:45:14;;;;;;;5.72;3.15;;;13.10;99.90;;;;;;10446297;28;20199;-61
2024/02/09 15:50:19;;;;;;;6.45;3.60;;;13.10;99.90;;;;;;10447727;28;20230;-63
2024/02/09 15:55:23;;;;;;;4.28;3.00;;;13.00;99.90;;;;;;10442388;28;20227;-63
2024/02/09 16:00:26;;;;;;;5.13;3.15;;;13.10;99.90;;;;;;10445005;28;20278;-63
2024/02/09 16:05:31;;;;;;;5.13;3.78;;;13.00;99.90;;;;;;10447084;28;20203;-62
2024/02/09 16:10:35;;;;;;;5.53;3.45;;;13.00;99.90;;;;;;10447691;28;20223;-62
2024/02/09 16:15:42;;;;;;;5.43;3.22;;;13.00;99.90;;;;;;10446311;28;20199;-62
2024/02/09 16:20:47;;;;;;;4.57;2.70;;;13.00;99.90;;;;;;10444534;28;20247;-62
2024/02/09 16:25:52;;;;;;;5.40;2.63;;;13.00;99.90;;;;;;10449762;28;20670;-61
2024/02/09 16:31:08;;;;;;;17.75;13.93;;;12.90;99.90;;;;;;10449574;28;20842;-61
2024/02/09 16:36:19;;;;;;;4.78;3.25;;;12.90;99.90;;;;;;10445222;28;20260;-62
2024/02/09 16:41:23;;;;;;;4.38;2.90;;;12.90;99.90;;;;;;10443343;28;20259;-61
2024/02/09 16:46:28;;;;;;;3.90;2.63;;;12.80;99.90;;;;;;10446022;28;20253;-63
2024/02/09 16:51:33;;;;;;;4.18;2.58;;;12.80;99.90;;;;;;10451073;28;20219;-63
2024/02/09 16:56:40;;;;;;;5.88;2.88;;;12.80;99.90;;;;;;10455497;28;20204;-63
2024/02/09 17:01:45;;;;;;;5.55;2.90;;;12.70;99.90;;;;;;10443699;28;20250;-62
2024/02/09 17:06:50;;;;;;;7.85;2.75;;;12.70;99.90;;;;;;10451089;28;20207;-62
2024/02/09 17:11:55;;;;;;;5.68;2.35;;;12.70;99.90;;;;;;10453601;28;20245;-63
2024/02/09 17:17:05;;;;;;;4.30;2.58;;;12.70;99.90;;;;;;10449002;28;20199;-63
2024/02/09 17:22:10;;;;;;;4.35;2.47;;;12.60;99.90;;;;;;10449532;28;20583;-63
2024/02/09 17:27:14;;;;;;;3.75;2.65;;;12.60;99.90;;;;;;10450229;28;20612;-63
2024/02/09 17:32:18;;;;;;;5.18;2.83;;;12.60;99.90;;;;;;10478961;22;20273;-67
2024/02/09 17:37:23;;;;;;;6.50;2.97;;;12.60;99.90;;;;;;10469956;28;20237;-68
2024/02/09 17:42:27;;;;;;;3.40;2.58;;;12.50;99.90;;;;;;10474743;28;20262;-67
2024/02/09 17:47:30;;;;;;;4.88;2.40;;;12.50;99.90;;;;;;10472860;28;20303;-66
2024/02/09 17:52:35;;;;;;;5.47;2.72;;;12.50;99.90;;;;;;10474752;28;20632;-66
2024/02/09 17:57:39;;;;;;;4.60;3.50;;;12.50;99.90;;;;;;10482232;28;20479;-68
2024/02/09 18:02:43;;;;;;;6.88;3.60;;;12.60;99.90;;;;;;10492484;28;20766;-66
2024/02/09 18:07:48;;;;;;;6.30;4.53;;;12.50;99.90;;;;;;10479867;28;20890;-64
2024/02/09 18:12:51;;;;;;;6.43;4.32;;;12.60;99.90;;;;;;10481465;28;20669;-63
2024/02/09 18:17:55;;;;;;;6.93;4.30;;;12.60;99.90;;;;;;10476237;28;20670;-62
2024/02/09 18:23:00;;;;;;;5.28;4.00;;;12.60;99.90;;;;;;10483061;28;20257;-68
2024/02/09 18:28:04;;;;;;;6.50;3.90;;;12.50;99.90;;;;;;10478274;28;20222;-61
2024/02/09 18:33:08;;;;;;;7.10;4.68;;;12.50;99.90;;;;;;10478678;28;20235;-64
2024/02/09 18:38:13;;;;;;;6.88;3.45;;;12.50;99.90;;;;;;10478834;28;20612;-68
2024/02/09 18:43:17;;;;;;;6.00;3.78;;;12.40;99.90;;;;;;10475968;28;20307;-68
2024/02/09 18:48:20;;;;;;;5.45;3.22;;;12.40;99.90;;;;;;10479522;28;20299;-65
2024/02/09 18:53:25;;;;;;;6.32;3.17;;;12.40;99.90;;;;;;10472355;28;20238;-64
2024/02/09 18:58:32;;;;;;;4.55;3.38;;;12.40;99.90;;;;;;10478081;28;20200;-66
2024/02/09 19:03:36;;;;;;;6.28;3.53;;;12.40;99.90;;;;;;10480402;28;20243;-65
2024/02/09 19:08:41;;;;;;;7.03;3.47;;;12.40;99.90;;;;;;10479716;28;20269;-62
2024/02/09 19:13:44;;;;;;;5.70;3.13;;;12.30;99.90;;;;;;10487498;28;20654;-66
2024/02/09 19:18:49;;;;;;;7.32;3.40;;;12.30;99.90;;;;;;10478948;28;20300;-66
2024/02/09 19:23:55;;;;;;;6.65;3.35;;;12.30;99.90;;;;;;10479725;28;20246;-66
2024/02/09 19:28:59;;;;;;;5.22;2.90;;;12.30;99.90;;;;;;10484672;28;20215;-67
2024/02/09 19:34:04;;;;;;;6.65;3.60;;;12.30;99.90;;;;;;10477718;28;20260;-65
2024/02/09 19:39:11;;;;;;;5.82;3.75;;;12.30;99.90;;;;;;10481333;28;20214;-65
2024/02/09 19:44:17;;;;;;;7.45;4.15;;;12.20;99.90;;;;;;10479566;28;20251;-67
2024/02/09 19:49:21;;;;;;;8.20;4.30;;;12.20;99.90;;;;;;10480658;28;20311;-64
2024/02/09 19:54:26;;;;;;;6.78;3.90;;;12.20;99.90;;;;;;10473398;28;20191;-67
2024/02/09 19:59:32;;;;;;;10.77;4.30;;;12.10;99.90;;;;;;10483532;28;20222;-65
2024/02/09 20:04:35;;;;;;;7.03;4.00;;;12.10;99.90;;;;;;10483683;28;20264;-70
2024/02/09 20:09:41;;;;;;;8.07;4.13;;;12.10;99.90;;;;;;10474308;28;20704;-64
2024/02/09 20:14:45;;;;;;;11.10;5.05;;;12.00;99.90;;;;;;10475446;28;20703;-64
2024/02/09 20:19:53;;;;;;;11.18;5.72;;;12.00;99.90;;;;;;10466806;28;20266;-66
2024/02/09 20:24:58;;;;;;;10.40;5.10;;;12.00;99.90;;;;;;10465594;28;20311;-65
2024/02/09 20:30:09;;;;;;;7.10;4.15;;;12.00;99.90;;;;;;10478821;28;20378;-62
2024/02/09 20:35:13;;;;;;;12.10;5.60;;;12.00;99.90;;;;;;10470351;28;20203;-65
2024/02/09 20:40:18;;;;;;;8.57;4.22;;;12.00;99.90;;;;;;10473244;28;20766;-68
2024/02/09 20:45:22;;;;;;;7.75;4.97;;;12.00;99.90;;;;;;10477111;28;20651;-68
2024/02/09 20:50:30;;;;;;;9.00;4.95;;;11.90;99.90;;;;;;10468080;28;20243;-65
2024/02/09 20:55:36;;;;;;;8.77;4.82;;;11.90;99.90;;;;;;10477338;28;20257;-63
2024/02/09 21:00:40;;;;;;;16.92;9.60;;;11.90;99.90;;;;;;10477497;28;20215;-64
2024/02/09 21:05:46;;;;;;;10.10;6.05;;;11.80;99.90;;;;;;10472084;28;20273;-67
2024/02/09 21:10:55;;;;;;;5.93;4.18;;;11.80;99.90;;;;;;10465987;28;20701;-69
2024/02/09 21:15:59;;;;;;;8.73;4.15;;;11.80;99.90;;;;;;10472516;28;20230;-67
2024/02/09 21:21:04;;;;;;;6.88;4.30;;;11.80;99.90;;;;;;10471611;28;20267;-65
2024/02/09 21:26:09;;;;;;;8.98;4.30;;;11.80;99.90;;;;;;10487203;28;20274;-66
2024/02/09 21:31:14;;;;;;;6.70;4.00;;;11.80;99.90;;;;;;10484543;28;20273;-66
2024/02/09 21:36:17;;;;;;;8.05;3.95;;;11.80;99.90;;;;;;10488584;28;20235;-66
2024/02/09 21:41:22;;;;;;;4.95;3.58;;;11.80;99.90;;;;;;10487107;28;20292;-66
2024/02/09 21:46:29;;;;;;;9.80;4.63;;;11.80;99.90;;;;;;10484538;28;20203;-65
2024/02/09 21:51:33;;;;;;;7.55;4.07;;;11.80;99.90;;;;;;10482463;28;20292;-66
2024/02/09 21:56:38;;;;;;;7.03;4.13;;;11.80;99.90;;;;;;10487020;28;20308;-66
2024/02/09 22:01:42;;;;;;;8.60;5.10;;;11.90;99.90;;;;;;10477280;28;20285;-66
2024/02/09 22:06:46;;;;;;;9.13;5.43;;;11.90;99.90;;;;;;10481640;28;20199;-67
2024/02/09 22:11:51;;;;;;;8.27;5.35;;;12.00;99.90;;;;;;10475384;28;20268;-66
2024/02/09 22:16:57;;;;;;;9.68;5.78;;;12.00;99.90;;;;;;10484063;28;20203;-66
2024/02/09 22:22:01;;;;;;;8.07;4.95;;;12.00;99.90;;;;;;10486384;28;20276;-67
2024/02/09 22:27:06;;;;;;;10.93;6.05;;;12.00;99.90;;;;;;10477030;28;20935;-67
2024/02/09 22:32:11;;;;;;;9.52;5.60;;;12.00;99.90;;;;;;10476645;28;20721;-66
2024/02/09 22:37:15;;;;;;;10.93;5.88;;;12.00;99.90;;;;;;10479014;28;20269;-67
2024/02/09 22:42:20;;;;;;;10.88;5.82;;;12.00;99.90;;;;;;10483098;28;20238;-65
2024/02/09 22:47:23;;;;;;;11.10;5.40;;;12.00;99.90;;;;;;10481822;28;20288;-67
2024/02/09 22:52:27;;;;;;;9.82;5.75;;;12.00;99.90;;;;;;10483279;28;20250;-66
2024/02/09 22:57:34;;;;;;;8.32;5.63;;;12.00;99.90;;;;;;10484289;28;20570;-65
2024/02/09 23:02:37;;;;;;;9.27;6.25;;;12.00;99.90;;;;;;10473369;28;20226;-64
2024/02/09 23:07:42;;;;;;;12.57;6.57;;;12.00;99.90;;;;;;10479849;28;20195;-65
2024/02/09 23:12:48;;;;;;;12.02;6.20;;;12.00;99.90;;;;;;10476612;28;20246;-65
2024/02/09 23:17:51;;;;;;;9.55;5.95;;;12.10;99.90;;;;;;10480338;28;20237;-65
2024/02/09 23:22:55;;;;;;;9.23;6.20;;;12.10;99.90;;;;;;10481749;28;20218;-68
2024/02/09 23:28:02;;;;;;;8.27;6.28;;;12.10;99.90;;;;;;10484331;28;20272;-66
2024/02/09 23:33:06;;;;;;;8.40;6.10;;;12.10;99.90;;;;;;10486489;22;20231;-57
2024/02/09 23:38:09;;;;;;;11.70;7.25;;;12.20;99.90;;;;;;10444917;28;20213;-60
2024/02/09 23:43:15;;;;;;;10.32;7.50;;;12.20;99.90;;;;;;10440925;28;20263;-58
2024/02/09 23:48:21;;;;;;;11.52;7.53;;;12.20;99.90;;;;;;10444292;28;20196;-57
2024/02/09 23:53:26;;;;;;;12.30;7.75;;;12.20;99.90;;;;;;10448371;28;20216;-59
2024/02/09 23:58:33;;;;;;;12.32;7.20;;;12.20;99.90;;;;;;10451414;28;20678;-60
